CheckWX is a tool to help pilots better visualize weather data.  It is not intended as a substitute for an official pre-flight weather briefing.

00:21:56 UTC

LJPZ METAR
Portoroz Airport
Portoroz, Slovenia
Current

22 mins ago

LJPZ 120000Z AUTO 14003KT 9999 BKN075/// OVC100/// 12/11 Q1007
Observed
Nov-12 @ 00:00 UTC
Wind
  • 140° at 3 KTS
Visibility
10,000+ meters
Flight Rules
VFR
Cloud Levels
  • Broken at 7,500' AGL
  • Overcast at 10,000' AGL
Temperature
12°C / 54°F
Dewpoint
11°C / 52°F
Humidity
94%
Altimeter
29.73" Hg
Pressure
1006.92 hPa
Previous

52 mins ago

LJPZ 112330Z AUTO 14002KT 9999 BKN075/// BKN180/// 12/11 Q1008
Observed
Nov-11 @ 23:30 UTC
Wind
  • 140° at 2 KTS
Visibility
10,000+ meters
Flight Rules
VFR
Cloud Levels
  • Broken at 7,500' AGL
  • Broken at 18,000' AGL
Temperature
12°C / 54°F
Dewpoint
11°C / 52°F
Humidity
94%
Altimeter
29.76" Hg
Pressure
1007.92 hPa
Previous

1 hour ago

LJPZ 112300Z AUTO VRB02KT 9999 SCT070/// BKN190/// 12/11 Q1008
Observed
Nov-11 @ 23:00 UTC
Wind
  • Variable at 2 KTS
Visibility
10,000+ meters
Flight Rules
VFR
Cloud Levels
  • Scattered at 7,000' AGL
  • Broken at 19,000' AGL
Temperature
12°C / 54°F
Dewpoint
11°C / 52°F
Humidity
94%
Altimeter
29.76" Hg
Pressure
1007.92 hPa